<?xml version="1.0" encoding="utf-8"?>
<gpx xmlns:xsi="http://www.w3.org/2001/XMLSchema-instance" xmlns:xsd="http://www.w3.org/2001/XMLSchema" version="1.1" creator="Shapelink.com" xmlns="http://www.topografix.com/GPX/1/1" xmlns:gpxtpx="http://www.garmin.com/xmlschemas/TrackPointExtension/v1">
  <metadata>
    <name>Löpning 5.03 km, 2018-06-29</name>
    <desc></desc>
    <author><name>Stefan Östlund</name></author> 
    <time>2018-06-29T16:13:18Z</time>
  </metadata>
  <trk>
    <name>Löpning 5.03 km, 2018-06-29</name>
    <trkseg>
      <trkpt lat="59.986497888873" lon="15.82152691856">
        <ele>79</ele>
        <time>2018-06-29T16:13:18Z</time>
      </trkpt>
      <trkpt lat="59.986534350138" lon="15.821369171202">
        <ele>79.2</ele>
        <time>2018-06-29T16:13:24Z</time>
      </trkpt>
      <trkpt lat="59.986559831114" lon="15.821144452463">
        <ele>79.2</ele>
        <time>2018-06-29T16:13:30Z</time>
      </trkpt>
      <trkpt lat="59.986582210787" lon="15.820880590251">
        <ele>79.2</ele>
        <time>2018-06-29T16:13:36Z</time>
      </trkpt>
      <trkpt lat="59.98660878141" lon="15.820601724438">
        <ele>79.4</ele>
        <time>2018-06-29T16:13:42Z</time>
      </trkpt>
      <trkpt lat="59.986624455563" lon="15.820300730409">
        <ele>79.2</ele>
        <time>2018-06-29T16:13:48Z</time>
      </trkpt>
      <trkpt lat="59.986634597662" lon="15.819992360308">
        <ele>80</ele>
        <time>2018-06-29T16:13:54Z</time>
      </trkpt>
      <trkpt lat="59.986630155255" lon="15.819735035978">
        <ele>80.4</ele>
        <time>2018-06-29T16:13:59Z</time>
      </trkpt>
      <trkpt lat="59.986597298207" lon="15.819432030293">
        <ele>80.2</ele>
        <time>2018-06-29T16:14:05Z</time>
      </trkpt>
      <trkpt lat="59.986566368996" lon="15.819118966328">
        <ele>81</ele>
        <time>2018-06-29T16:14:11Z</time>
      </trkpt>
      <trkpt lat="59.986536194156" lon="15.818816798833">
        <ele>80.2</ele>
        <time>2018-06-29T16:14:17Z</time>
      </trkpt>
      <trkpt lat="59.986535188328" lon="15.81847590696">
        <ele>79.4</ele>
        <time>2018-06-29T16:14:23Z</time>
      </trkpt>
      <trkpt lat="59.986541390934" lon="15.818429471234">
        <ele>79.2</ele>
        <time>2018-06-29T16:14:24Z</time>
      </trkpt>
      <trkpt lat="59.986618420595" lon="15.818141301512">
        <ele>78</ele>
        <time>2018-06-29T16:14:30Z</time>
      </trkpt>
      <trkpt lat="59.98667164566" lon="15.818003670714">
        <ele>78</ele>
        <time>2018-06-29T16:14:33Z</time>
      </trkpt>
      <trkpt lat="59.986766612587" lon="15.817748860954">
        <ele>78.2</ele>
        <time>2018-06-29T16:14:39Z</time>
      </trkpt>
      <trkpt lat="59.986818161272" lon="15.817473599358">
        <ele>78.2</ele>
        <time>2018-06-29T16:14:45Z</time>
      </trkpt>
      <trkpt lat="59.986833751606" lon="15.817147208172">
        <ele>78.2</ele>
        <time>2018-06-29T16:14:51Z</time>
      </trkpt>
      <trkpt lat="59.986838026375" lon="15.817001195474">
        <ele>79</ele>
        <time>2018-06-29T16:14:54Z</time>
      </trkpt>
      <trkpt lat="59.986822352222" lon="15.816685616939">
        <ele>78.4</ele>
        <time>2018-06-29T16:15:00Z</time>
      </trkpt>
      <trkpt lat="59.986813802684" lon="15.816368278205">
        <ele>78.6</ele>
        <time>2018-06-29T16:15:06Z</time>
      </trkpt>
      <trkpt lat="59.98675797923" lon="15.816119671051">
        <ele>79.2</ele>
        <time>2018-06-29T16:15:12Z</time>
      </trkpt>
      <trkpt lat="59.986643398657" lon="15.81619686835">
        <ele>79</ele>
        <time>2018-06-29T16:15:18Z</time>
      </trkpt>
      <trkpt lat="59.986502163642" lon="15.816314717864">
        <ele>78.6</ele>
        <time>2018-06-29T16:15:24Z</time>
      </trkpt>
      <trkpt lat="59.98635900079" lon="15.816446732789">
        <ele>78.2</ele>
        <time>2018-06-29T16:15:30Z</time>
      </trkpt>
      <trkpt lat="59.986210724979" lon="15.816509345582">
        <ele>78</ele>
        <time>2018-06-29T16:15:36Z</time>
      </trkpt>
      <trkpt lat="59.986049457223" lon="15.816474560697">
        <ele>78.4</ele>
        <time>2018-06-29T16:15:42Z</time>
      </trkpt>
      <trkpt lat="59.985896152272" lon="15.816438686165">
        <ele>78.4</ele>
        <time>2018-06-29T16:15:48Z</time>
      </trkpt>
      <trkpt lat="59.985797916404" lon="15.816404571832">
        <ele>78</ele>
        <time>2018-06-29T16:15:52Z</time>
      </trkpt>
      <trkpt lat="59.985773776532" lon="15.816390993154">
        <ele>78</ele>
        <time>2018-06-29T16:15:53Z</time>
      </trkpt>
      <trkpt lat="59.985619381934" lon="15.816330056741">
        <ele>78</ele>
        <time>2018-06-29T16:15:59Z</time>
      </trkpt>
      <trkpt lat="59.985463981508" lon="15.81622117586">
        <ele>77.8</ele>
        <time>2018-06-29T16:16:05Z</time>
      </trkpt>
      <trkpt lat="59.98533892356" lon="15.816025290857">
        <ele>77.4</ele>
        <time>2018-06-29T16:16:11Z</time>
      </trkpt>
      <trkpt lat="59.985226941376" lon="15.815776851341">
        <ele>77.6</ele>
        <time>2018-06-29T16:16:17Z</time>
      </trkpt>
      <trkpt lat="59.985124095463" lon="15.815503014668">
        <ele>78</ele>
        <time>2018-06-29T16:16:23Z</time>
      </trkpt>
      <trkpt lat="59.985040276463" lon="15.815213922937">
        <ele>78</ele>
        <time>2018-06-29T16:16:29Z</time>
      </trkpt>
      <trkpt lat="59.984959307309" lon="15.814907061578">
        <ele>78.8</ele>
        <time>2018-06-29T16:16:35Z</time>
      </trkpt>
      <trkpt lat="59.984940280396" lon="15.81480379657">
        <ele>79</ele>
        <time>2018-06-29T16:16:37Z</time>
      </trkpt>
      <trkpt lat="59.984905495511" lon="15.814510262432">
        <ele>78.8</ele>
        <time>2018-06-29T16:16:43Z</time>
      </trkpt>
      <trkpt lat="59.984872303187" lon="15.814242796003">
        <ele>78.2</ele>
        <time>2018-06-29T16:16:49Z</time>
      </trkpt>
      <trkpt lat="59.984836512474" lon="15.813943310716">
        <ele>78.4</ele>
        <time>2018-06-29T16:16:55Z</time>
      </trkpt>
      <trkpt lat="59.984783957961" lon="15.813629324742">
        <ele>78.6</ele>
        <time>2018-06-29T16:17:01Z</time>
      </trkpt>
      <trkpt lat="59.984709023775" lon="15.81334618416">
        <ele>78.6</ele>
        <time>2018-06-29T16:17:07Z</time>
      </trkpt>
      <trkpt lat="59.984652194493" lon="15.813065809605">
        <ele>79</ele>
        <time>2018-06-29T16:17:13Z</time>
      </trkpt>
      <trkpt lat="59.984587989139" lon="15.812785770326">
        <ele>78.8</ele>
        <time>2018-06-29T16:17:19Z</time>
      </trkpt>
      <trkpt lat="59.984535350807" lon="15.812522578666">
        <ele>78</ele>
        <time>2018-06-29T16:17:25Z</time>
      </trkpt>
      <trkpt lat="59.984505511243" lon="15.812210269072">
        <ele>78.4</ele>
        <time>2018-06-29T16:17:31Z</time>
      </trkpt>
      <trkpt lat="59.984582457085" lon="15.81196317066">
        <ele>77.8</ele>
        <time>2018-06-29T16:17:36Z</time>
      </trkpt>
      <trkpt lat="59.984709778146" lon="15.811814643392">
        <ele>78</ele>
        <time>2018-06-29T16:17:42Z</time>
      </trkpt>
      <trkpt lat="59.984840871062" lon="15.811691429462">
        <ele>78</ele>
        <time>2018-06-29T16:17:48Z</time>
      </trkpt>
      <trkpt lat="59.984977496032" lon="15.811413150382">
        <ele>78.2</ele>
        <time>2018-06-29T16:17:54Z</time>
      </trkpt>
      <trkpt lat="59.985112360803" lon="15.811171667843">
        <ele>77.6</ele>
        <time>2018-06-29T16:18:00Z</time>
      </trkpt>
      <trkpt lat="59.985157706882" lon="15.81109480582">
        <ele>77.6</ele>
        <time>2018-06-29T16:18:02Z</time>
      </trkpt>
      <trkpt lat="59.985302210838" lon="15.810852149815">
        <ele>78.2</ele>
        <time>2018-06-29T16:18:08Z</time>
      </trkpt>
      <trkpt lat="59.98544118274" lon="15.810655342803">
        <ele>77.6</ele>
        <time>2018-06-29T16:18:14Z</time>
      </trkpt>
      <trkpt lat="59.985581831022" lon="15.810548473578">
        <ele>77.8</ele>
        <time>2018-06-29T16:18:20Z</time>
      </trkpt>
      <trkpt lat="59.985723568951" lon="15.810440933801">
        <ele>78.2</ele>
        <time>2018-06-29T16:18:26Z</time>
      </trkpt>
      <trkpt lat="59.985793473997" lon="15.810389301297">
        <ele>79</ele>
        <time>2018-06-29T16:18:29Z</time>
      </trkpt>
      <trkpt lat="59.985884166155" lon="15.810308415962">
        <ele>80.2</ele>
        <time>2018-06-29T16:18:33Z</time>
      </trkpt>
      <trkpt lat="59.9859977409" lon="15.810212024112">
        <ele>81</ele>
        <time>2018-06-29T16:18:39Z</time>
      </trkpt>
      <trkpt lat="59.986068903231" lon="15.810167516223">
        <ele>81.2</ele>
        <time>2018-06-29T16:18:42Z</time>
      </trkpt>
      <trkpt lat="59.986191111333" lon="15.810058216247">
        <ele>81.6</ele>
        <time>2018-06-29T16:18:48Z</time>
      </trkpt>
      <trkpt lat="59.986312229788" lon="15.80994564733">
        <ele>82.2</ele>
        <time>2018-06-29T16:18:54Z</time>
      </trkpt>
      <trkpt lat="59.986334190366" lon="15.809930392272">
        <ele>82.2</ele>
        <time>2018-06-29T16:18:55Z</time>
      </trkpt>
      <trkpt lat="59.986481460349" lon="15.809810279645">
        <ele>82.6</ele>
        <time>2018-06-29T16:19:01Z</time>
      </trkpt>
      <trkpt lat="59.98656519553" lon="15.809305186351">
        <ele>81.8</ele>
        <time>2018-06-29T16:19:12Z</time>
      </trkpt>
      <trkpt lat="59.986465786196" lon="15.809006539254">
        <ele>81.8</ele>
        <time>2018-06-29T16:19:18Z</time>
      </trkpt>
      <trkpt lat="59.986315331091" lon="15.808928839041">
        <ele>82.2</ele>
        <time>2018-06-29T16:19:24Z</time>
      </trkpt>
      <trkpt lat="59.986247186244" lon="15.808820125798">
        <ele>82.2</ele>
        <time>2018-06-29T16:19:29Z</time>
      </trkpt>
      <trkpt lat="59.986192620075" lon="15.808505804548">
        <ele>82.4</ele>
        <time>2018-06-29T16:19:35Z</time>
      </trkpt>
      <trkpt lat="59.986084409746" lon="15.808205313433">
        <ele>82.2</ele>
        <time>2018-06-29T16:19:41Z</time>
      </trkpt>
      <trkpt lat="59.98601366651" lon="15.807953185881">
        <ele>82.4</ele>
        <time>2018-06-29T16:19:47Z</time>
      </trkpt>
      <trkpt lat="59.986111818559" lon="15.807708099125">
        <ele>81.6</ele>
        <time>2018-06-29T16:19:53Z</time>
      </trkpt>
      <trkpt lat="59.986195050826" lon="15.807438956316">
        <ele>81.8</ele>
        <time>2018-06-29T16:19:59Z</time>
      </trkpt>
      <trkpt lat="59.986224136019" lon="15.807353628574">
        <ele>82</ele>
        <time>2018-06-29T16:20:01Z</time>
      </trkpt>
      <trkpt lat="59.986315666367" lon="15.807114073872">
        <ele>82.4</ele>
        <time>2018-06-29T16:20:07Z</time>
      </trkpt>
      <trkpt lat="59.986441059591" lon="15.806924391475">
        <ele>82.8</ele>
        <time>2018-06-29T16:20:13Z</time>
      </trkpt>
      <trkpt lat="59.986481627987" lon="15.806866221089">
        <ele>83.4</ele>
        <time>2018-06-29T16:20:15Z</time>
      </trkpt>
      <trkpt lat="59.986540217468" lon="15.806692715759">
        <ele>84</ele>
        <time>2018-06-29T16:20:19Z</time>
      </trkpt>
      <trkpt lat="59.986529320998" lon="15.806599341393">
        <ele>84.2</ele>
        <time>2018-06-29T16:20:21Z</time>
      </trkpt>
      <trkpt lat="59.986467714033" lon="15.806448802469">
        <ele>84.8</ele>
        <time>2018-06-29T16:20:24Z</time>
      </trkpt>
      <trkpt lat="59.986350115976" lon="15.806180833126">
        <ele>85.4</ele>
        <time>2018-06-29T16:20:30Z</time>
      </trkpt>
      <trkpt lat="59.986219525974" lon="15.805910349213">
        <ele>84.8</ele>
        <time>2018-06-29T16:20:36Z</time>
      </trkpt>
      <trkpt lat="59.98607988352" lon="15.805641625499">
        <ele>84.4</ele>
        <time>2018-06-29T16:20:42Z</time>
      </trkpt>
      <trkpt lat="59.985937139763" lon="15.80543115599">
        <ele>84.8</ele>
        <time>2018-06-29T16:20:48Z</time>
      </trkpt>
      <trkpt lat="59.98581250091" lon="15.8052040065">
        <ele>85</ele>
        <time>2018-06-29T16:20:54Z</time>
      </trkpt>
      <trkpt lat="59.985682832917" lon="15.804980545046">
        <ele>85.6</ele>
        <time>2018-06-29T16:21:00Z</time>
      </trkpt>
      <trkpt lat="59.985662800176" lon="15.804945508704">
        <ele>85.8</ele>
        <time>2018-06-29T16:21:01Z</time>
      </trkpt>
      <trkpt lat="59.985551153268" lon="15.80469941612">
        <ele>86.8</ele>
        <time>2018-06-29T16:21:07Z</time>
      </trkpt>
      <trkpt lat="59.98545040283" lon="15.804450222233">
        <ele>87.2</ele>
        <time>2018-06-29T16:21:13Z</time>
      </trkpt>
      <trkpt lat="59.98533976175" lon="15.804188455496">
        <ele>87.6</ele>
        <time>2018-06-29T16:21:19Z</time>
      </trkpt>
      <trkpt lat="59.985298355164" lon="15.804114694776">
        <ele>88</ele>
        <time>2018-06-29T16:21:21Z</time>
      </trkpt>
      <trkpt lat="59.985178913089" lon="15.803873547513">
        <ele>88.6</ele>
        <time>2018-06-29T16:21:27Z</time>
      </trkpt>
      <trkpt lat="59.985063661964" lon="15.803659389968">
        <ele>88.4</ele>
        <time>2018-06-29T16:21:33Z</time>
      </trkpt>
      <trkpt lat="59.985047987811" lon="15.803624269807">
        <ele>88.2</ele>
        <time>2018-06-29T16:21:34Z</time>
      </trkpt>
      <trkpt lat="59.984931898496" lon="15.803411201909">
        <ele>88.4</ele>
        <time>2018-06-29T16:21:40Z</time>
      </trkpt>
      <trkpt lat="59.984836596293" lon="15.803186734627">
        <ele>89</ele>
        <time>2018-06-29T16:21:46Z</time>
      </trkpt>
      <trkpt lat="59.984817820837" lon="15.803145663317">
        <ele>89.2</ele>
        <time>2018-06-29T16:21:47Z</time>
      </trkpt>
      <trkpt lat="59.984720087883" lon="15.802878951259">
        <ele>89.8</ele>
        <time>2018-06-29T16:21:53Z</time>
      </trkpt>
      <trkpt lat="59.984676669641" lon="15.802757748985">
        <ele>90.2</ele>
        <time>2018-06-29T16:21:56Z</time>
      </trkpt>
      <trkpt lat="59.984629647182" lon="15.80259555922">
        <ele>91.4</ele>
        <time>2018-06-29T16:22:00Z</time>
      </trkpt>
      <trkpt lat="59.984554461539" lon="15.802347371161">
        <ele>92.2</ele>
        <time>2018-06-29T16:22:06Z</time>
      </trkpt>
      <trkpt lat="59.984541553413" lon="15.802301522168">
        <ele>92.4</ele>
        <time>2018-06-29T16:22:07Z</time>
      </trkpt>
      <trkpt lat="59.984463937019" lon="15.802028188409">
        <ele>93</ele>
        <time>2018-06-29T16:22:13Z</time>
      </trkpt>
      <trkpt lat="59.984398306742" lon="15.801842277867">
        <ele>93.6</ele>
        <time>2018-06-29T16:22:17Z</time>
      </trkpt>
      <trkpt lat="59.984320355072" lon="15.801563998787">
        <ele>94.6</ele>
        <time>2018-06-29T16:22:23Z</time>
      </trkpt>
      <trkpt lat="59.984241984307" lon="15.801269291183">
        <ele>94.8</ele>
        <time>2018-06-29T16:22:29Z</time>
      </trkpt>
      <trkpt lat="59.984152633253" lon="15.80098455804">
        <ele>94.8</ele>
        <time>2018-06-29T16:22:35Z</time>
      </trkpt>
      <trkpt lat="59.984066132045" lon="15.800693957567">
        <ele>95</ele>
        <time>2018-06-29T16:22:41Z</time>
      </trkpt>
      <trkpt lat="59.983993209515" lon="15.800375361548">
        <ele>95.6</ele>
        <time>2018-06-29T16:22:47Z</time>
      </trkpt>
      <trkpt lat="59.983963369951" lon="15.800274359653">
        <ele>95.8</ele>
        <time>2018-06-29T16:22:49Z</time>
      </trkpt>
      <trkpt lat="59.983857758011" lon="15.800008737242">
        <ele>95.8</ele>
        <time>2018-06-29T16:22:55Z</time>
      </trkpt>
      <trkpt lat="59.983741584877" lon="15.799770942739">
        <ele>95.4</ele>
        <time>2018-06-29T16:23:01Z</time>
      </trkpt>
      <trkpt lat="59.9836005175" lon="15.799581344161">
        <ele>95</ele>
        <time>2018-06-29T16:23:07Z</time>
      </trkpt>
      <trkpt lat="59.983443524513" lon="15.799403396424">
        <ele>95.4</ele>
        <time>2018-06-29T16:23:13Z</time>
      </trkpt>
      <trkpt lat="59.983301870403" lon="15.799266855273">
        <ele>94.8</ele>
        <time>2018-06-29T16:23:18Z</time>
      </trkpt>
      <trkpt lat="59.98313699843" lon="15.799104078775">
        <ele>94.6</ele>
        <time>2018-06-29T16:23:24Z</time>
      </trkpt>
      <trkpt lat="59.982982436194" lon="15.798926131038">
        <ele>94.4</ele>
        <time>2018-06-29T16:23:30Z</time>
      </trkpt>
      <trkpt lat="59.982842961378" lon="15.798727647646">
        <ele>94.2</ele>
        <time>2018-06-29T16:23:36Z</time>
      </trkpt>
      <trkpt lat="59.9826952723" lon="15.798557830352">
        <ele>93.8</ele>
        <time>2018-06-29T16:23:42Z</time>
      </trkpt>
      <trkpt lat="59.982562167728" lon="15.798362532082">
        <ele>93.8</ele>
        <time>2018-06-29T16:23:48Z</time>
      </trkpt>
      <trkpt lat="59.982515229088" lon="15.798304445515">
        <ele>93.6</ele>
        <time>2018-06-29T16:23:50Z</time>
      </trkpt>
      <trkpt lat="59.982337616627" lon="15.798216687022">
        <ele>94.2</ele>
        <time>2018-06-29T16:23:56Z</time>
      </trkpt>
      <trkpt lat="59.98216972717" lon="15.798131024004">
        <ele>93.4</ele>
        <time>2018-06-29T16:24:02Z</time>
      </trkpt>
      <trkpt lat="59.982013572373" lon="15.798037565819">
        <ele>93.4</ele>
        <time>2018-06-29T16:24:08Z</time>
      </trkpt>
      <trkpt lat="59.981873259367" lon="15.79790840074">
        <ele>92.6</ele>
        <time>2018-06-29T16:24:14Z</time>
      </trkpt>
      <trkpt lat="59.981746022125" lon="15.797728860442">
        <ele>93.2</ele>
        <time>2018-06-29T16:24:20Z</time>
      </trkpt>
      <trkpt lat="59.981681732952" lon="15.797589804721">
        <ele>94.2</ele>
        <time>2018-06-29T16:24:24Z</time>
      </trkpt>
      <trkpt lat="59.981681649133" lon="15.797534568">
        <ele>95</ele>
        <time>2018-06-29T16:24:25Z</time>
      </trkpt>
      <trkpt lat="59.981689863395" lon="15.797393668261">
        <ele>96</ele>
        <time>2018-06-29T16:24:28Z</time>
      </trkpt>
      <trkpt lat="59.981803354321" lon="15.796970214673">
        <ele>98.6</ele>
        <time>2018-06-29T16:24:37Z</time>
      </trkpt>
      <trkpt lat="59.981882982371" lon="15.79667374687">
        <ele>99.6</ele>
        <time>2018-06-29T16:24:43Z</time>
      </trkpt>
      <trkpt lat="59.981895722859" lon="15.796618845425">
        <ele>99.8</ele>
        <time>2018-06-29T16:24:44Z</time>
      </trkpt>
      <trkpt lat="59.981994377822" lon="15.796364622398">
        <ele>100.8</ele>
        <time>2018-06-29T16:24:50Z</time>
      </trkpt>
      <trkpt lat="59.98205405695" lon="15.796249538911">
        <ele>101</ele>
        <time>2018-06-29T16:24:53Z</time>
      </trkpt>
      <trkpt lat="59.982174588672" lon="15.796036135737">
        <ele>101.2</ele>
        <time>2018-06-29T16:24:59Z</time>
      </trkpt>
      <trkpt lat="59.98228707377" lon="15.795826001504">
        <ele>101.6</ele>
        <time>2018-06-29T16:25:05Z</time>
      </trkpt>
      <trkpt lat="59.982347674907" lon="15.795545040216">
        <ele>102</ele>
        <time>2018-06-29T16:25:11Z</time>
      </trkpt>
      <trkpt lat="59.982266035201" lon="15.795289308447">
        <ele>101.4</ele>
        <time>2018-06-29T16:25:17Z</time>
      </trkpt>
      <trkpt lat="59.982136870122" lon="15.79505855474">
        <ele>101.2</ele>
        <time>2018-06-29T16:25:23Z</time>
      </trkpt>
      <trkpt lat="59.982017344228" lon="15.794798212926">
        <ele>101.2</ele>
        <time>2018-06-29T16:25:29Z</time>
      </trkpt>
      <trkpt lat="59.981914749772" lon="15.794562513898">
        <ele>100.8</ele>
        <time>2018-06-29T16:25:34Z</time>
      </trkpt>
      <trkpt lat="59.981801929398" lon="15.794308961423">
        <ele>100</ele>
        <time>2018-06-29T16:25:40Z</time>
      </trkpt>
      <trkpt lat="59.98176404321" lon="15.794218017808">
        <ele>99.6</ele>
        <time>2018-06-29T16:25:42Z</time>
      </trkpt>
      <trkpt lat="59.981642589479" lon="15.793943678221">
        <ele>99.4</ele>
        <time>2018-06-29T16:25:48Z</time>
      </trkpt>
      <trkpt lat="59.981556758823" lon="15.793624244012">
        <ele>99</ele>
        <time>2018-06-29T16:25:54Z</time>
      </trkpt>
      <trkpt lat="59.981566817103" lon="15.793320819232">
        <ele>98.6</ele>
        <time>2018-06-29T16:25:59Z</time>
      </trkpt>
      <trkpt lat="59.981663879505" lon="15.792993506037">
        <ele>98</ele>
        <time>2018-06-29T16:26:05Z</time>
      </trkpt>
      <trkpt lat="59.981822800329" lon="15.792792005161">
        <ele>98.4</ele>
        <time>2018-06-29T16:26:11Z</time>
      </trkpt>
      <trkpt lat="59.98198029623" lon="15.792615398528">
        <ele>98.2</ele>
        <time>2018-06-29T16:26:17Z</time>
      </trkpt>
      <trkpt lat="59.982133768819" lon="15.792384644821">
        <ele>99</ele>
        <time>2018-06-29T16:26:23Z</time>
      </trkpt>
      <trkpt lat="59.982226053538" lon="15.792264113099">
        <ele>99.2</ele>
        <time>2018-06-29T16:26:27Z</time>
      </trkpt>
      <trkpt lat="59.982363684336" lon="15.792436612601">
        <ele>98.2</ele>
        <time>2018-06-29T16:26:59Z</time>
      </trkpt>
      <trkpt lat="59.982374916082" lon="15.79247944411">
        <ele>98.2</ele>
        <time>2018-06-29T16:27:01Z</time>
      </trkpt>
      <trkpt lat="59.982470134466" lon="15.792707683247">
        <ele>98</ele>
        <time>2018-06-29T16:27:07Z</time>
      </trkpt>
      <trkpt lat="59.982570884904" lon="15.793040696134">
        <ele>98.2</ele>
        <time>2018-06-29T16:27:13Z</time>
      </trkpt>
      <trkpt lat="59.982672138256" lon="15.793392316839">
        <ele>98.4</ele>
        <time>2018-06-29T16:27:19Z</time>
      </trkpt>
      <trkpt lat="59.982712790471" lon="15.793708482107">
        <ele>98.6</ele>
        <time>2018-06-29T16:27:25Z</time>
      </trkpt>
      <trkpt lat="59.982814211461" lon="15.793944767868">
        <ele>98.6</ele>
        <time>2018-06-29T16:27:31Z</time>
      </trkpt>
      <trkpt lat="59.982942035436" lon="15.794140485233">
        <ele>98.6</ele>
        <time>2018-06-29T16:27:37Z</time>
      </trkpt>
      <trkpt lat="59.982967767869" lon="15.794282055524">
        <ele>98.4</ele>
        <time>2018-06-29T16:27:39Z</time>
      </trkpt>
      <trkpt lat="59.982199482915" lon="15.79224894186">
        <ele>98.4</ele>
        <time>2018-06-29T16:48:08Z</time>
      </trkpt>
      <trkpt lat="59.982197638897" lon="15.792296634871">
        <ele>98.6</ele>
        <time>2018-06-29T16:48:09Z</time>
      </trkpt>
      <trkpt lat="59.9821588307" lon="15.792418340059">
        <ele>98.8</ele>
        <time>2018-06-29T16:48:12Z</time>
      </trkpt>
      <trkpt lat="59.982023463015" lon="15.792593270312">
        <ele>98.2</ele>
        <time>2018-06-29T16:48:18Z</time>
      </trkpt>
      <trkpt lat="59.981878372326" lon="15.792767278556">
        <ele>97.8</ele>
        <time>2018-06-29T16:48:24Z</time>
      </trkpt>
      <trkpt lat="59.981732946361" lon="15.7929999601">
        <ele>97.6</ele>
        <time>2018-06-29T16:48:30Z</time>
      </trkpt>
      <trkpt lat="59.981658515089" lon="15.793213614731">
        <ele>97.4</ele>
        <time>2018-06-29T16:48:34Z</time>
      </trkpt>
      <trkpt lat="59.98162322729" lon="15.793569258748">
        <ele>97.2</ele>
        <time>2018-06-29T16:48:40Z</time>
      </trkpt>
      <trkpt lat="59.981673853966" lon="15.793875617193">
        <ele>97.4</ele>
        <time>2018-06-29T16:48:46Z</time>
      </trkpt>
      <trkpt lat="59.98175566131" lon="15.794158925413">
        <ele>99.6</ele>
        <time>2018-06-29T16:48:52Z</time>
      </trkpt>
      <trkpt lat="59.981818860836" lon="15.794368640551">
        <ele>100.8</ele>
        <time>2018-06-29T16:48:56Z</time>
      </trkpt>
      <trkpt lat="59.981892956832" lon="15.794628311813">
        <ele>101.2</ele>
        <time>2018-06-29T16:49:02Z</time>
      </trkpt>
      <trkpt lat="59.982057661167" lon="15.794819335314">
        <ele>101.8</ele>
        <time>2018-06-29T16:49:07Z</time>
      </trkpt>
      <trkpt lat="59.982179953088" lon="15.795064086794">
        <ele>102.2</ele>
        <time>2018-06-29T16:49:13Z</time>
      </trkpt>
      <trkpt lat="59.982299898077" lon="15.79530582079">
        <ele>102.2</ele>
        <time>2018-06-29T16:49:19Z</time>
      </trkpt>
      <trkpt lat="59.982405426198" lon="15.795558451256">
        <ele>102</ele>
        <time>2018-06-29T16:49:25Z</time>
      </trkpt>
      <trkpt lat="59.982520509685" lon="15.795818625432">
        <ele>102.2</ele>
        <time>2018-06-29T16:49:31Z</time>
      </trkpt>
      <trkpt lat="59.982628720014" lon="15.796040661963">
        <ele>101.8</ele>
        <time>2018-06-29T16:49:37Z</time>
      </trkpt>
      <trkpt lat="59.982760986396" lon="15.796248113988">
        <ele>101.6</ele>
        <time>2018-06-29T16:49:43Z</time>
      </trkpt>
      <trkpt lat="59.982881769575" lon="15.796449698683">
        <ele>101.4</ele>
        <time>2018-06-29T16:49:49Z</time>
      </trkpt>
      <trkpt lat="59.98294505292" lon="15.796546844904">
        <ele>100.6</ele>
        <time>2018-06-29T16:49:52Z</time>
      </trkpt>
      <trkpt lat="59.983085617383" lon="15.796722613347">
        <ele>99.6</ele>
        <time>2018-06-29T16:49:58Z</time>
      </trkpt>
      <trkpt lat="59.983110092531" lon="15.796753542558">
        <ele>99.4</ele>
        <time>2018-06-29T16:49:59Z</time>
      </trkpt>
      <trkpt lat="59.983161557397" lon="15.796820262482">
        <ele>99</ele>
        <time>2018-06-29T16:50:01Z</time>
      </trkpt>
      <trkpt lat="59.983244538207" lon="15.796938782548">
        <ele>98.4</ele>
        <time>2018-06-29T16:50:05Z</time>
      </trkpt>
      <trkpt lat="59.983369763793" lon="15.797089908205">
        <ele>97.4</ele>
        <time>2018-06-29T16:50:11Z</time>
      </trkpt>
      <trkpt lat="59.983516447043" lon="15.797256037463">
        <ele>97</ele>
        <time>2018-06-29T16:50:17Z</time>
      </trkpt>
      <trkpt lat="59.983671176917" lon="15.797417891952">
        <ele>96.8</ele>
        <time>2018-06-29T16:50:23Z</time>
      </trkpt>
      <trkpt lat="59.983719456661" lon="15.797474385958">
        <ele>96</ele>
        <time>2018-06-29T16:50:25Z</time>
      </trkpt>
      <trkpt lat="59.98386203278" lon="15.797638922655">
        <ele>95.8</ele>
        <time>2018-06-29T16:50:31Z</time>
      </trkpt>
      <trkpt lat="59.984001507596" lon="15.797798933126">
        <ele>95.4</ele>
        <time>2018-06-29T16:50:37Z</time>
      </trkpt>
      <trkpt lat="59.98412941539" lon="15.797906389084">
        <ele>95</ele>
        <time>2018-06-29T16:50:42Z</time>
      </trkpt>
      <trkpt lat="59.984419764406" lon="15.797727770795">
        <ele>94.6</ele>
        <time>2018-06-29T16:50:54Z</time>
      </trkpt>
      <trkpt lat="59.984498554266" lon="15.797421663807">
        <ele>95.2</ele>
        <time>2018-06-29T16:51:00Z</time>
      </trkpt>
      <trkpt lat="59.984585306931" lon="15.797119161036">
        <ele>95.8</ele>
        <time>2018-06-29T16:51:06Z</time>
      </trkpt>
      <trkpt lat="59.984687230835" lon="15.796851778426">
        <ele>95.8</ele>
        <time>2018-06-29T16:51:12Z</time>
      </trkpt>
      <trkpt lat="59.984706844481" lon="15.796809952745">
        <ele>96</ele>
        <time>2018-06-29T16:51:13Z</time>
      </trkpt>
      <trkpt lat="59.984852102808" lon="15.796602668358">
        <ele>96.2</ele>
        <time>2018-06-29T16:51:19Z</time>
      </trkpt>
      <trkpt lat="59.985013202926" lon="15.796462103895">
        <ele>96.4</ele>
        <time>2018-06-29T16:51:25Z</time>
      </trkpt>
      <trkpt lat="59.985153851208" lon="15.796317935215">
        <ele>96.2</ele>
        <time>2018-06-29T16:51:31Z</time>
      </trkpt>
      <trkpt lat="59.985317298258" lon="15.79616496554">
        <ele>96.2</ele>
        <time>2018-06-29T16:51:37Z</time>
      </trkpt>
      <trkpt lat="59.985475213254" lon="15.796006631449">
        <ele>95.8</ele>
        <time>2018-06-29T16:51:43Z</time>
      </trkpt>
      <trkpt lat="59.98563396644" lon="15.795812422826">
        <ele>96.2</ele>
        <time>2018-06-29T16:51:49Z</time>
      </trkpt>
      <trkpt lat="59.98578316426" lon="15.795616454004">
        <ele>96</ele>
        <time>2018-06-29T16:51:55Z</time>
      </trkpt>
      <trkpt lat="59.985931775347" lon="15.795465495985">
        <ele>96.8</ele>
        <time>2018-06-29T16:52:01Z</time>
      </trkpt>
      <trkpt lat="59.986075022018" lon="15.795318896554">
        <ele>97</ele>
        <time>2018-06-29T16:52:07Z</time>
      </trkpt>
      <trkpt lat="59.986127157436" lon="15.795274891579">
        <ele>97.2</ele>
        <time>2018-06-29T16:52:09Z</time>
      </trkpt>
      <trkpt lat="59.986277277265" lon="15.795171542752">
        <ele>97.8</ele>
        <time>2018-06-29T16:52:15Z</time>
      </trkpt>
      <trkpt lat="59.98643779065" lon="15.795108091769">
        <ele>97.8</ele>
        <time>2018-06-29T16:52:21Z</time>
      </trkpt>
      <trkpt lat="59.98654843173" lon="15.795075067083">
        <ele>98.2</ele>
        <time>2018-06-29T16:52:25Z</time>
      </trkpt>
      <trkpt lat="59.986700563215" lon="15.795031481203">
        <ele>98.8</ele>
        <time>2018-06-29T16:52:31Z</time>
      </trkpt>
      <trkpt lat="59.986860825143" lon="15.795010945548">
        <ele>99</ele>
        <time>2018-06-29T16:52:37Z</time>
      </trkpt>
      <trkpt lat="59.986989990222" lon="15.795182774498">
        <ele>99</ele>
        <time>2018-06-29T16:52:43Z</time>
      </trkpt>
      <trkpt lat="59.987104654614" lon="15.795413276748">
        <ele>98.8</ele>
        <time>2018-06-29T16:52:49Z</time>
      </trkpt>
      <trkpt lat="59.987202052292" lon="15.795632966347">
        <ele>98</ele>
        <time>2018-06-29T16:52:55Z</time>
      </trkpt>
      <trkpt lat="59.98729022988" lon="15.795849135548">
        <ele>97.4</ele>
        <time>2018-06-29T16:53:01Z</time>
      </trkpt>
      <trkpt lat="59.987324511851" lon="15.795919543508">
        <ele>97.2</ele>
        <time>2018-06-29T16:53:03Z</time>
      </trkpt>
      <trkpt lat="59.98744445684" lon="15.796114590321">
        <ele>96</ele>
        <time>2018-06-29T16:53:09Z</time>
      </trkpt>
      <trkpt lat="59.98757186172" lon="15.796326987667">
        <ele>95</ele>
        <time>2018-06-29T16:53:15Z</time>
      </trkpt>
      <trkpt lat="59.987702116446" lon="15.79655640027">
        <ele>94.2</ele>
        <time>2018-06-29T16:53:21Z</time>
      </trkpt>
      <trkpt lat="59.987829437507" lon="15.796803414863">
        <ele>94</ele>
        <time>2018-06-29T16:53:27Z</time>
      </trkpt>
      <trkpt lat="59.987853661198" lon="15.796856137014">
        <ele>94</ele>
        <time>2018-06-29T16:53:28Z</time>
      </trkpt>
      <trkpt lat="59.987911412489" lon="15.797026960136">
        <ele>93.6</ele>
        <time>2018-06-29T16:53:31Z</time>
      </trkpt>
      <trkpt lat="59.987888110807" lon="15.797275399652">
        <ele>94</ele>
        <time>2018-06-29T16:53:37Z</time>
      </trkpt>
      <trkpt lat="59.987856762501" lon="15.797517720381">
        <ele>94.8</ele>
        <time>2018-06-29T16:53:43Z</time>
      </trkpt>
      <trkpt lat="59.987856594863" lon="15.797573376197">
        <ele>95</ele>
        <time>2018-06-29T16:53:44Z</time>
      </trkpt>
      <trkpt lat="59.987846536583" lon="15.797890966388">
        <ele>94.6</ele>
        <time>2018-06-29T16:53:50Z</time>
      </trkpt>
      <trkpt lat="59.98781074587" lon="15.798117026231">
        <ele>94</ele>
        <time>2018-06-29T16:53:54Z</time>
      </trkpt>
      <trkpt lat="59.987763220497" lon="15.798429503463">
        <ele>93</ele>
        <time>2018-06-29T16:54:00Z</time>
      </trkpt>
      <trkpt lat="59.987746456697" lon="15.798459510665">
        <ele>92.8</ele>
        <time>2018-06-29T16:54:01Z</time>
      </trkpt>
      <trkpt lat="59.98762215312" lon="15.798767796947">
        <ele>92.4</ele>
        <time>2018-06-29T16:54:07Z</time>
      </trkpt>
      <trkpt lat="59.987522240872" lon="15.799116148711">
        <ele>92</ele>
        <time>2018-06-29T16:54:13Z</time>
      </trkpt>
      <trkpt lat="59.987515116257" lon="15.799171133975">
        <ele>91.8</ele>
        <time>2018-06-29T16:54:14Z</time>
      </trkpt>
      <trkpt lat="59.987534813722" lon="15.799368024806">
        <ele>91</ele>
        <time>2018-06-29T16:54:19Z</time>
      </trkpt>
      <trkpt lat="59.98752408489" lon="15.799541027222">
        <ele>90.6</ele>
        <time>2018-06-29T16:54:23Z</time>
      </trkpt>
      <trkpt lat="59.987536071007" lon="15.79969374544">
        <ele>89.6</ele>
        <time>2018-06-29T16:54:26Z</time>
      </trkpt>
      <trkpt lat="59.987559707965" lon="15.799853336816">
        <ele>88.4</ele>
        <time>2018-06-29T16:54:29Z</time>
      </trkpt>
      <trkpt lat="59.98759197828" lon="15.800000439161">
        <ele>87.4</ele>
        <time>2018-06-29T16:54:32Z</time>
      </trkpt>
      <trkpt lat="59.98762047674" lon="15.800267737952">
        <ele>86.2</ele>
        <time>2018-06-29T16:54:37Z</time>
      </trkpt>
      <trkpt lat="59.987607736252" lon="15.800387934398">
        <ele>85.6</ele>
        <time>2018-06-29T16:54:40Z</time>
      </trkpt>
      <trkpt lat="59.987611843383" lon="15.800640648683">
        <ele>86</ele>
        <time>2018-06-29T16:54:46Z</time>
      </trkpt>
      <trkpt lat="59.987675042909" lon="15.800970392629">
        <ele>87</ele>
        <time>2018-06-29T16:54:52Z</time>
      </trkpt>
      <trkpt lat="59.987749055086" lon="15.801269123545">
        <ele>86.2</ele>
        <time>2018-06-29T16:54:58Z</time>
      </trkpt>
      <trkpt lat="59.987838489959" lon="15.801574979076">
        <ele>85.2</ele>
        <time>2018-06-29T16:55:04Z</time>
      </trkpt>
      <trkpt lat="59.987849889343" lon="15.801630886349">
        <ele>85</ele>
        <time>2018-06-29T16:55:05Z</time>
      </trkpt>
      <trkpt lat="59.987912669774" lon="15.801853593432">
        <ele>84</ele>
        <time>2018-06-29T16:55:09Z</time>
      </trkpt>
      <trkpt lat="59.987976623671" lon="15.802157688764">
        <ele>84.2</ele>
        <time>2018-06-29T16:55:15Z</time>
      </trkpt>
      <trkpt lat="59.988002356104" lon="15.802471423281">
        <ele>84.2</ele>
        <time>2018-06-29T16:55:21Z</time>
      </trkpt>
      <trkpt lat="59.988023897587" lon="15.802743751212">
        <ele>84.4</ele>
        <time>2018-06-29T16:55:27Z</time>
      </trkpt>
      <trkpt lat="59.9881183616" lon="15.803010966184">
        <ele>84</ele>
        <time>2018-06-29T16:55:33Z</time>
      </trkpt>
      <trkpt lat="59.988112158994" lon="15.803354372627">
        <ele>84</ele>
        <time>2018-06-29T16:55:39Z</time>
      </trkpt>
      <trkpt lat="59.988074105168" lon="15.803446238251">
        <ele>84.2</ele>
        <time>2018-06-29T16:55:43Z</time>
      </trkpt>
      <trkpt lat="59.988002859018" lon="15.803345152537">
        <ele>84.8</ele>
        <time>2018-06-29T16:55:49Z</time>
      </trkpt>
      <trkpt lat="59.987983999743" lon="15.803290502549">
        <ele>84.8</ele>
        <time>2018-06-29T16:55:51Z</time>
      </trkpt>
      <trkpt lat="59.987929098298" lon="15.80321833439">
        <ele>85</ele>
        <time>2018-06-29T16:55:54Z</time>
      </trkpt>
      <trkpt lat="59.987779565202" lon="15.803208443748">
        <ele>85.4</ele>
        <time>2018-06-29T16:56:00Z</time>
      </trkpt>
      <trkpt lat="59.987649478114" lon="15.803355713731">
        <ele>85.6</ele>
        <time>2018-06-29T16:56:06Z</time>
      </trkpt>
      <trkpt lat="59.987499106828" lon="15.803560735005">
        <ele>85.8</ele>
        <time>2018-06-29T16:56:12Z</time>
      </trkpt>
      <trkpt lat="59.987331971742" lon="15.803703059667">
        <ele>85.6</ele>
        <time>2018-06-29T16:56:18Z</time>
      </trkpt>
      <trkpt lat="59.987050088445" lon="15.803887964381">
        <ele>85.6</ele>
        <time>2018-06-29T16:56:27Z</time>
      </trkpt>
      <trkpt lat="59.986867698301" lon="15.804064487195">
        <ele>85.6</ele>
        <time>2018-06-29T16:56:33Z</time>
      </trkpt>
      <trkpt lat="59.986750100244" lon="15.804242770208">
        <ele>85.2</ele>
        <time>2018-06-29T16:56:39Z</time>
      </trkpt>
      <trkpt lat="59.986623198278" lon="15.804455586649">
        <ele>85.2</ele>
        <time>2018-06-29T16:56:45Z</time>
      </trkpt>
      <trkpt lat="59.986539379278" lon="15.80470276888">
        <ele>86.2</ele>
        <time>2018-06-29T16:56:51Z</time>
      </trkpt>
      <trkpt lat="59.986454722088" lon="15.804963110694">
        <ele>86.6</ele>
        <time>2018-06-29T16:56:57Z</time>
      </trkpt>
      <trkpt lat="59.986355731849" lon="15.805287741681">
        <ele>86.6</ele>
        <time>2018-06-29T16:57:03Z</time>
      </trkpt>
      <trkpt lat="59.986233188471" lon="15.805600051275">
        <ele>86.8</ele>
        <time>2018-06-29T16:57:09Z</time>
      </trkpt>
      <trkpt lat="59.98621315573" lon="15.805661239145">
        <ele>86.6</ele>
        <time>2018-06-29T16:57:11Z</time>
      </trkpt>
      <trkpt lat="59.986265794062" lon="15.805911857955">
        <ele>87</ele>
        <time>2018-06-29T16:57:17Z</time>
      </trkpt>
      <trkpt lat="59.986357072953" lon="15.806171193941">
        <ele>87</ele>
        <time>2018-06-29T16:57:23Z</time>
      </trkpt>
      <trkpt lat="59.986427061818" lon="15.806343441986">
        <ele>87.4</ele>
        <time>2018-06-29T16:57:27Z</time>
      </trkpt>
      <trkpt lat="59.986555221069" lon="15.806542512111">
        <ele>87.2</ele>
        <time>2018-06-29T16:57:33Z</time>
      </trkpt>
      <trkpt lat="59.986628814151" lon="15.806611746605">
        <ele>86.2</ele>
        <time>2018-06-29T16:57:36Z</time>
      </trkpt>
      <trkpt lat="59.986812042485" lon="15.806714676337">
        <ele>85.8</ele>
        <time>2018-06-29T16:57:42Z</time>
      </trkpt>
      <trkpt lat="59.986986637462" lon="15.806804027391">
        <ele>86.2</ele>
        <time>2018-06-29T16:57:48Z</time>
      </trkpt>
      <trkpt lat="59.987140026232" lon="15.80691307591">
        <ele>86</ele>
        <time>2018-06-29T16:57:54Z</time>
      </trkpt>
      <trkpt lat="59.987277489392" lon="15.807078450797">
        <ele>86.4</ele>
        <time>2018-06-29T16:58:00Z</time>
      </trkpt>
      <trkpt lat="59.987404558996" lon="15.807286741012">
        <ele>86.6</ele>
        <time>2018-06-29T16:58:06Z</time>
      </trkpt>
      <trkpt lat="59.987455856224" lon="15.807419426489">
        <ele>87.2</ele>
        <time>2018-06-29T16:58:09Z</time>
      </trkpt>
      <trkpt lat="59.987563144544" lon="15.807693095524">
        <ele>87</ele>
        <time>2018-06-29T16:58:15Z</time>
      </trkpt>
      <trkpt lat="59.987618548903" lon="15.807962657428">
        <ele>87.8</ele>
        <time>2018-06-29T16:58:21Z</time>
      </trkpt>
      <trkpt lat="59.987638162549" lon="15.808066592988">
        <ele>88.2</ele>
        <time>2018-06-29T16:58:23Z</time>
      </trkpt>
      <trkpt lat="59.987652495598" lon="15.808410418526">
        <ele>89</ele>
        <time>2018-06-29T16:58:29Z</time>
      </trkpt>
      <trkpt lat="59.987658027652" lon="15.808611667945">
        <ele>89.4</ele>
        <time>2018-06-29T16:58:32Z</time>
      </trkpt>
      <trkpt lat="59.987647215001" lon="15.80895658313">
        <ele>89.6</ele>
        <time>2018-06-29T16:58:38Z</time>
      </trkpt>
      <trkpt lat="59.987593570841" lon="15.809221032075">
        <ele>90.2</ele>
        <time>2018-06-29T16:58:44Z</time>
      </trkpt>
      <trkpt lat="59.987586446226" lon="15.809277106986">
        <ele>90.4</ele>
        <time>2018-06-29T16:58:45Z</time>
      </trkpt>
      <trkpt lat="59.987588541701" lon="15.809638450695">
        <ele>91</ele>
        <time>2018-06-29T16:58:51Z</time>
      </trkpt>
      <trkpt lat="59.987588206425" lon="15.809834419517">
        <ele>91.6</ele>
        <time>2018-06-29T16:58:54Z</time>
      </trkpt>
      <trkpt lat="59.987559959422" lon="15.810120409945">
        <ele>92</ele>
        <time>2018-06-29T16:59:00Z</time>
      </trkpt>
      <trkpt lat="59.987542860346" lon="15.810453841927">
        <ele>92.6</ele>
        <time>2018-06-29T16:59:06Z</time>
      </trkpt>
      <trkpt lat="59.98754420145" lon="15.810554508546">
        <ele>92.6</ele>
        <time>2018-06-29T16:59:08Z</time>
      </trkpt>
      <trkpt lat="59.987534646084" lon="15.810870003262">
        <ele>93.4</ele>
        <time>2018-06-29T16:59:14Z</time>
      </trkpt>
      <trkpt lat="59.987536154826" lon="15.810975112288">
        <ele>94</ele>
        <time>2018-06-29T16:59:16Z</time>
      </trkpt>
      <trkpt lat="59.987547218934" lon="15.811273927023">
        <ele>94.8</ele>
        <time>2018-06-29T16:59:22Z</time>
      </trkpt>
      <trkpt lat="59.987561384345" lon="15.811579531097">
        <ele>94.6</ele>
        <time>2018-06-29T16:59:28Z</time>
      </trkpt>
      <trkpt lat="59.987579908344" lon="15.811895361089">
        <ele>94.6</ele>
        <time>2018-06-29T16:59:34Z</time>
      </trkpt>
      <trkpt lat="59.98763640235" lon="15.812279252109">
        <ele>94.2</ele>
        <time>2018-06-29T16:59:40Z</time>
      </trkpt>
      <trkpt lat="59.987728435612" lon="15.812656437609">
        <ele>94.4</ele>
        <time>2018-06-29T16:59:46Z</time>
      </trkpt>
      <trkpt lat="59.987810494413" lon="15.812998670586">
        <ele>93.8</ele>
        <time>2018-06-29T16:59:52Z</time>
      </trkpt>
      <trkpt lat="59.987897833811" lon="15.813366384539">
        <ele>93.6</ele>
        <time>2018-06-29T16:59:58Z</time>
      </trkpt>
      <trkpt lat="59.987969415237" lon="15.813750275559">
        <ele>93.4</ele>
        <time>2018-06-29T17:00:04Z</time>
      </trkpt>
      <trkpt lat="59.987970756341" lon="15.814078007849">
        <ele>92.8</ele>
        <time>2018-06-29T17:00:09Z</time>
      </trkpt>
      <trkpt lat="59.987895570698" lon="15.814310689393">
        <ele>91.6</ele>
        <time>2018-06-29T17:00:13Z</time>
      </trkpt>
      <trkpt lat="59.987821977616" lon="15.814444548336">
        <ele>90.2</ele>
        <time>2018-06-29T17:00:16Z</time>
      </trkpt>
      <trkpt lat="59.987782331229" lon="15.814639678968">
        <ele>89</ele>
        <time>2018-06-29T17:00:20Z</time>
      </trkpt>
      <trkpt lat="59.987779313745" lon="15.814839754921">
        <ele>87.8</ele>
        <time>2018-06-29T17:00:23Z</time>
      </trkpt>
      <trkpt lat="59.9877914675" lon="15.815101521658">
        <ele>86.6</ele>
        <time>2018-06-29T17:00:28Z</time>
      </trkpt>
      <trkpt lat="59.987828431679" lon="15.815189447789">
        <ele>86.4</ele>
        <time>2018-06-29T17:00:30Z</time>
      </trkpt>
      <trkpt lat="59.987885931513" lon="15.815295059729">
        <ele>86</ele>
        <time>2018-06-29T17:00:33Z</time>
      </trkpt>
      <trkpt lat="59.98807309934" lon="15.815373179037">
        <ele>86.2</ele>
        <time>2018-06-29T17:00:39Z</time>
      </trkpt>
      <trkpt lat="59.988198157288" lon="15.815611727911">
        <ele>86.8</ele>
        <time>2018-06-29T17:00:45Z</time>
      </trkpt>
      <trkpt lat="59.98827594132" lon="15.815820353402">
        <ele>88</ele>
        <time>2018-06-29T17:00:50Z</time>
      </trkpt>
      <trkpt lat="59.988394293748" lon="15.816067619452">
        <ele>87.4</ele>
        <time>2018-06-29T17:00:56Z</time>
      </trkpt>
      <trkpt lat="59.98846118131" lon="15.816361237409">
        <ele>87.4</ele>
        <time>2018-06-29T17:01:02Z</time>
      </trkpt>
      <trkpt lat="59.98855086764" lon="15.816550249254">
        <ele>87.8</ele>
        <time>2018-06-29T17:01:08Z</time>
      </trkpt>
      <trkpt lat="59.988728144825" lon="15.816575897868">
        <ele>89</ele>
        <time>2018-06-29T17:01:14Z</time>
      </trkpt>
      <trkpt lat="59.988899470861" lon="15.816536502938">
        <ele>90.2</ele>
        <time>2018-06-29T17:01:19Z</time>
      </trkpt>
      <trkpt lat="59.989016482185" lon="15.816479086923">
        <ele>91.4</ele>
        <time>2018-06-29T17:01:23Z</time>
      </trkpt>
      <trkpt lat="59.989174229543" lon="15.816381605426">
        <ele>91.6</ele>
        <time>2018-06-29T17:01:29Z</time>
      </trkpt>
      <trkpt lat="59.989442282705" lon="15.816162334922">
        <ele>92.8</ele>
        <time>2018-06-29T17:01:39Z</time>
      </trkpt>
      <trkpt lat="59.989545296256" lon="15.816109612771">
        <ele>92.2</ele>
        <time>2018-06-29T17:01:43Z</time>
      </trkpt>
    </trkseg>
  </trk>
</gpx>